createdAt,value
2019-04-10T00:04:35.675Z,18.23
2019-04-10T00:09:59.304Z,20.33
2019-04-10T00:15:24.326Z,20.73
2019-04-10T00:20:49.120Z,18.37
2019-04-10T00:26:13.908Z,18.60
2019-04-10T00:31:38.162Z,17.10
2019-04-10T00:37:02.395Z,19.07
2019-04-10T00:42:27.568Z,18.47
2019-04-10T00:47:51.192Z,20.13
2019-04-10T00:53:16.908Z,18.33
2019-04-10T00:58:41.523Z,21.50
2019-04-10T01:04:06.854Z,18.43
2019-04-10T01:09:31.154Z,22.03
2019-04-10T01:14:54.479Z,20.53
2019-04-10T01:20:19.606Z,20.90
2019-04-10T01:25:43.183Z,20.07
2019-04-10T01:31:07.692Z,20.47
2019-04-10T01:36:31.844Z,21.67
2019-04-10T01:41:56.475Z,19.60
2019-04-10T01:47:21.344Z,20.97
2019-04-10T01:52:47.060Z,25.33
2019-04-10T01:58:17.574Z,23.07
2019-04-10T02:03:42.436Z,23.43
2019-04-10T02:09:10.960Z,21.00
2019-04-10T02:14:36.351Z,19.97
2019-04-10T02:20:00.928Z,23.57
2019-04-10T02:25:25.368Z,20.20
2019-04-10T02:30:50.185Z,25.47
2019-04-10T02:36:14.607Z,22.80
2019-04-10T02:41:38.793Z,19.83
2019-04-10T02:47:04.199Z,26.03
2019-04-10T02:52:28.603Z,22.07
2019-04-10T02:57:54.269Z,23.80
2019-04-10T03:03:20.089Z,23.77
2019-04-10T03:09:05.917Z,26.30
2019-04-10T03:14:10.620Z,21.30
2019-04-10T03:19:34.128Z,20.33
2019-04-10T03:24:58.495Z,21.23
2019-04-10T03:30:23.655Z,21.50
2019-04-10T03:35:51.472Z,22.87
2019-04-10T03:41:15.962Z,25.23
2019-04-10T03:46:40.311Z,25.93
2019-04-10T03:52:05.141Z,23.63
2019-04-10T03:57:29.596Z,24.13
2019-04-10T04:02:53.868Z,24.00
2019-04-10T04:08:17.916Z,25.07
2019-04-10T04:13:42.143Z,25.50
2019-04-10T04:19:06.003Z,25.57
2019-04-10T04:24:30.171Z,26.83
2019-04-10T04:29:54.139Z,25.93
2019-04-10T04:35:18.634Z,29.60
2019-04-10T04:40:44.250Z,24.80
2019-04-10T04:46:08.139Z,25.90
2019-04-10T04:51:33.055Z,26.33
2019-04-10T04:56:56.728Z,26.00
2019-04-10T05:02:20.243Z,26.43
2019-04-10T05:07:55.544Z,26.47
2019-04-10T05:13:10.355Z,29.70
2019-04-10T05:18:35.107Z,28.10
2019-04-10T05:23:59.653Z,29.10
2019-04-10T05:29:24.971Z,27.17
2019-04-10T05:34:50.381Z,22.90
2019-04-10T05:40:13.891Z,27.03
2019-04-10T05:45:38.383Z,22.70
2019-04-10T05:51:05.645Z,26.37
2019-04-10T05:56:28.583Z,26.07
2019-04-10T06:01:52.739Z,25.60
2019-04-10T06:07:17.027Z,26.23
2019-04-10T06:12:40.920Z,21.53
2019-04-10T06:18:05.039Z,36.00
2019-04-10T06:23:29.653Z,25.37
2019-04-10T06:28:54.740Z,24.13
2019-04-10T06:34:20.473Z,22.73
2019-04-10T06:39:44.995Z,21.90
2019-04-10T06:45:11.429Z,24.60
2019-04-10T06:50:37.044Z,24.30
2019-04-10T06:56:01.455Z,25.30
2019-04-10T07:01:33.619Z,23.43
2019-04-10T07:06:59.755Z,18.80
2019-04-10T07:12:16.458Z,21.33
2019-04-10T07:17:41.888Z,24.10
2019-04-10T07:23:06.988Z,19.80
2019-04-10T07:28:30.418Z,18.27
2019-04-10T07:33:54.915Z,18.37
2019-04-10T07:39:18.513Z,16.07
2019-04-10T07:44:43.027Z,24.23
2019-04-10T07:50:08.799Z,16.10
2019-04-10T07:55:33.164Z,17.50
2019-04-10T08:00:57.324Z,18.53
2019-04-10T08:06:22.054Z,19.87
2019-04-10T08:11:47.129Z,18.77
2019-04-10T08:17:10.530Z,18.00
2019-04-10T08:22:35.032Z,21.37
2019-04-10T08:27:58.604Z,15.27
2019-04-10T08:33:21.986Z,20.23
2019-04-10T08:38:46.699Z,14.83
2019-04-10T08:44:10.758Z,15.53
2019-04-10T08:49:34.769Z,23.50
2019-04-10T08:54:59.611Z,13.73
2019-04-10T09:00:24.799Z,15.10
2019-04-10T09:05:49.072Z,16.67
2019-04-10T09:11:12.843Z,18.13
2019-04-10T09:16:38.434Z,14.70
2019-04-10T09:22:03.854Z,19.07
2019-04-10T09:27:28.964Z,17.70
2019-04-10T09:32:52.844Z,12.57
2019-04-10T09:38:16.795Z,14.85
2019-04-10T09:43:40.126Z,17.37
2019-04-10T09:49:05.428Z,18.62
2019-04-10T09:54:28.770Z,18.10
2019-04-10T09:59:52.898Z,17.82
2019-04-10T10:05:18.181Z,14.33
2019-04-10T10:10:42.666Z,18.20
2019-04-10T10:16:06.522Z,18.00
2019-04-10T10:21:30.580Z,13.20
2019-04-10T10:26:55.631Z,12.03
2019-04-10T10:32:19.227Z,16.23
2019-04-10T10:37:42.899Z,13.30
2019-04-10T10:43:06.461Z,17.47
2019-04-10T10:48:31.563Z,17.43
2019-04-10T10:53:56.660Z,13.83
2019-04-10T10:59:21.828Z,12.63
2019-04-10T11:04:45.402Z,17.30
2019-04-10T11:10:09.812Z,16.10
2019-04-10T11:15:34.185Z,14.80
2019-04-10T11:21:04.097Z,15.28
2019-04-10T11:26:25.575Z,18.62
2019-04-10T11:31:50.121Z,13.18
2019-04-10T11:37:24.189Z,14.37
2019-04-10T11:42:39.921Z,14.70
2019-04-10T11:48:05.865Z,16.62
2019-04-10T11:53:32.693Z,13.17
2019-04-10T11:58:57.599Z,18.07
2019-04-10T12:04:23.247Z,13.90
2019-04-10T12:15:12.327Z,24.75
2019-04-10T12:20:37.497Z,14.10
2019-04-10T12:26:01.697Z,16.20
2019-04-10T12:31:26.079Z,12.82
2019-04-10T12:36:51.795Z,17.25
2019-04-10T12:42:16.492Z,17.23
2019-04-10T12:47:41.978Z,14.95
2019-04-10T12:53:07.422Z,22.30
2019-04-10T12:58:30.971Z,15.30
2019-04-10T13:03:55.733Z,15.32
2019-04-10T13:09:20.117Z,15.15
2019-04-10T13:14:44.280Z,32.23
2019-04-10T13:20:10.582Z,11.97
2019-04-10T13:25:34.510Z,13.03
2019-04-10T13:30:59.595Z,12.85
2019-04-10T13:36:23.859Z,15.63
2019-04-10T13:41:48.417Z,14.55
2019-04-10T13:47:13.390Z,14.15
2019-04-10T13:52:40.465Z,13.72
2019-04-10T13:58:04.160Z,11.63
2019-04-10T14:03:30.149Z,15.53
2019-04-10T14:09:08.182Z,15.38
2019-04-10T14:14:20.366Z,18.40
2019-04-10T14:19:45.699Z,15.50
2019-04-10T14:25:19.778Z,15.17
2019-04-10T14:30:43.683Z,13.90
2019-04-10T14:36:08.138Z,11.50
2019-04-10T14:41:32.306Z,16.27
2019-04-10T14:46:56.335Z,13.23
2019-04-10T14:52:21.802Z,14.43
2019-04-10T14:57:47.317Z,11.53
2019-04-10T15:03:11.922Z,12.87
2019-04-10T15:08:36.260Z,13.50
2019-04-10T15:14:01.299Z,13.08
2019-04-10T15:19:26.882Z,24.30
2019-04-10T15:24:51.876Z,15.03
2019-04-10T15:30:16.643Z,12.95
2019-04-10T15:35:41.555Z,12.70
2019-04-10T15:41:06.440Z,11.35
2019-04-10T15:46:30.406Z,10.47
2019-04-10T15:51:55.224Z,15.53
2019-04-10T15:57:22.837Z,13.87
2019-04-10T16:02:46.904Z,11.40
2019-04-10T16:08:12.149Z,16.20
2019-04-10T16:13:41.375Z,14.00
2019-04-10T16:19:15.106Z,10.97
2019-04-10T16:24:38.858Z,13.43
2019-04-10T16:30:03.756Z,13.60
2019-04-10T16:35:27.467Z,12.20
2019-04-10T16:40:52.079Z,14.90
2019-04-10T16:46:17.314Z,12.60
2019-04-10T16:51:41.115Z,13.03
2019-04-10T16:57:05.343Z,14.60
2019-04-10T17:02:29.877Z,13.37
2019-04-10T17:07:53.333Z,12.53
2019-04-10T17:13:18.300Z,13.57
2019-04-10T17:18:43.427Z,13.73
2019-04-10T17:24:09.189Z,19.47
2019-04-10T17:29:33.444Z,16.87
2019-04-10T17:34:57.214Z,12.43
2019-04-10T17:40:30.659Z,13.17
2019-04-10T17:45:46.915Z,12.77
2019-04-10T17:51:12.121Z,18.90
2019-04-10T17:56:36.151Z,12.43
2019-04-10T18:02:02.212Z,15.90
2019-04-10T18:07:26.042Z,14.50
2019-04-10T18:12:50.395Z,16.10
2019-04-10T18:18:15.761Z,13.63
2019-04-10T18:23:40.386Z,13.23
2019-04-10T18:29:05.966Z,15.70
2019-04-10T18:34:29.628Z,14.93
2019-04-10T18:39:53.266Z,12.27
2019-04-10T18:45:17.607Z,16.10
2019-04-10T18:50:41.890Z,13.27
2019-04-10T18:56:05.629Z,15.57
2019-04-10T19:01:43.239Z,14.73
2019-04-10T19:07:07.057Z,18.30
2019-04-10T19:12:32.747Z,18.87
2019-04-10T19:17:57.554Z,14.03
2019-04-10T19:23:22.723Z,15.00
2019-04-10T19:28:46.682Z,18.60
2019-04-10T19:34:10.497Z,16.23
2019-04-10T19:39:34.650Z,17.63
2019-04-10T19:44:59.443Z,15.00
2019-04-10T19:50:25.469Z,15.20
2019-04-10T19:55:50.143Z,13.37
2019-04-10T20:01:14.564Z,13.00
2019-04-10T20:06:39.093Z,16.07
2019-04-10T20:12:04.338Z,15.70
2019-04-10T20:17:28.656Z,15.50
2019-04-10T20:22:52.144Z,15.53
2019-04-10T20:28:16.829Z,15.83
2019-04-10T20:33:41.058Z,11.17
2019-04-10T20:39:07.815Z,17.33
2019-04-10T20:44:32.616Z,15.47
2019-04-10T20:49:56.616Z,13.53
2019-04-10T20:55:20.289Z,14.57
2019-04-10T21:00:44.984Z,12.63
2019-04-10T21:06:09.498Z,12.37
2019-04-10T21:11:33.369Z,16.20
2019-04-10T21:16:58.214Z,20.97
2019-04-10T21:22:22.407Z,12.73
2019-04-10T21:27:49.223Z,13.07
2019-04-10T21:33:30.233Z,14.40
2019-04-10T21:38:54.839Z,13.67
2019-04-10T21:44:19.016Z,15.23
2019-04-10T21:49:42.601Z,12.67
2019-04-10T21:55:07.169Z,15.87
2019-04-10T22:00:51.235Z,17.10
2019-04-10T22:06:31.626Z,16.27
2019-04-10T22:11:57.294Z,14.97
2019-04-10T22:17:22.626Z,17.40
2019-04-10T22:22:47.113Z,15.17
2019-04-10T22:28:11.271Z,13.57
2019-04-10T22:33:34.780Z,17.77
2019-04-10T22:38:58.951Z,20.03
2019-04-10T22:44:33.718Z,16.10
2019-04-10T22:49:48.582Z,18.60
2019-04-10T22:55:12.302Z,21.93
2019-04-10T23:00:37.633Z,18.33
2019-04-10T23:06:02.024Z,16.60
2019-04-10T23:11:33.435Z,15.23
2019-04-10T23:16:52.564Z,14.20
2019-04-10T23:22:16.941Z,14.13
2019-04-10T23:27:41.947Z,15.97
2019-04-10T23:33:06.104Z,15.70
2019-04-10T23:38:29.883Z,17.43
2019-04-10T23:43:54.191Z,15.47
2019-04-10T23:49:17.688Z,13.77
2019-04-10T23:54:42.164Z,13.03
